• Join FlightAware (Why Join?)
  • Login
  • US Flag 
01:03PM EDT


 

Airport Tracker/Info


-or-


 

Live Flight TrackerFlight Track Log ✈ CTL16 ✈ 21-Apr-2012 ✈ KISZ - KBKL

Flight Track Log - Related Links

Times and Time Zones

All times are in EDT time to prevent confusion due to time zone crossing. See the CTL16 flight status page for this flight to view local times or setup timezone preferences in your user account.

Time Position Orientation Groundspeed Altitude Reporting Facility
EDT Latitude Longitude Course Direction KTS MPH feet Rate Location/Type
08:10PM 39.3167 -84.3500 38° Northeast 161 185 2,700  Level Cincinnati TRACON
08:11PM 39.3500 -84.3167 29° Northeast 165 190 3,300 540 Climbing Cincinnati TRACON
08:12PM 39.3858 -84.2906 36° Northeast 171 197 3,800 420 Climbing Indianapolis Center
08:13PM 39.4256 -84.2533 43° Northeast 173 199 4,200 420 Climbing Indianapolis Center
08:14PM 39.4614 -84.2106 38° Northeast 180 207 4,700 540 Climbing Indianapolis Center
08:15PM 39.5011 -84.1706 39° Northeast 177 204 5,300 480 Climbing Indianapolis Center
08:16PM 39.5389 -84.1306 34° Northeast 177 204 5,700 480 Climbing Indianapolis Center
08:17PM 39.5786 -84.0958 35° Northeast 177 204 6,300 540 Climbing Indianapolis Center
08:18PM 39.6225 -84.0558 38° Northeast 179 206 6,800 240 Climbing Indianapolis Center
08:19PM 39.6708 -84.0075 33° Northeast 189 217 6,900 60 Climbing Indianapolis Center
08:20PM 39.7147 -83.9700 39° Northeast 188 216 7,000  Climbing Indianapolis Center
08:21PM 39.7628 -83.9189 43° Northeast 195 224 7,000  Level Indianapolis Center
08:22PM 39.8003 -83.8733 42° Northeast 197 227 7,100  Climbing Indianapolis Center
08:23PM 39.8400 -83.8275 40° Northeast 199 229 7,100 -60 Level Indianapolis Center
08:24PM 39.8819 -83.7817 49° Northeast 194 223 7,000 -60 Descending Indianapolis Center
08:25PM 39.9175 -83.7275 52° Northeast 193 222 7,000  Level Indianapolis Center
08:26PM 39.9508 -83.6708 35° Northeast 196 226 7,000  Level Indianapolis Center
08:27PM 39.9947 -83.6303 44° Northeast 194 223 7,000  Level Indianapolis Center
08:28PM 40.0364 -83.5786 42° Northeast 196 226 7,000  Level Indianapolis Center
08:29PM 40.0761 -83.5325 36° Northeast 195 224 7,000  Level Indianapolis Center
08:30PM 40.1219 -83.4892 48° Northeast 194 223 7,100  Climbing Indianapolis Center
08:32PM 40.1656 -83.4267 41° Northeast 195 224 7,000 -60 Descending Indianapolis Center
08:33PM 40.2008 -83.3858 39° Northeast 193 222 7,000  Level Indianapolis Center
08:34PM 40.2425 -83.3422 40° Northeast 191 220 7,000  Level Indianapolis Center
08:35PM 40.2819 -83.2986 49° Northeast 193 222 7,000  Level Indianapolis Center
08:45PM 40.6278 -82.7664 48° Northeast 195 224 7,200  Climbing Cleveland Center
08:46PM 40.6836 -82.6833 51° Northeast 190 219 7,200 -60 Level Cleveland Center
08:47PM 40.7181 -82.6267 54° Northeast 190 219 7,100 -240 Descending Cleveland Center
08:48PM 40.7458 -82.5756 41° Northeast 192 221 6,800 -480 Descending Cleveland Center
08:49PM 40.7906 -82.5247 46° Northeast 209 241 6,200 -840 Descending Cleveland Center
08:50PM 40.8311 -82.4683 55° Northeast 213 245 5,200 -600 Descending Cleveland Center
08:51PM 40.8636 -82.4061 59° Northeast 201 231 5,000 -60 Descending Cleveland Center
08:52PM 40.8872 -82.3547 56° Northeast 182 209 5,100  Climbing Cleveland Center
08:53PM 40.9153 -82.3003 53° Northeast 180 207 5,000 -60 Descending Cleveland Center
08:54PM 40.9494 -82.2408 52° Northeast 175 201 5,000 60 Level Cleveland Center
08:55PM 40.9750 -82.1975 53° Northeast 179 206 5,200 -300 Climbing Cleveland Center
08:56PM 41.0092 -82.1378 56° Northeast 192 221 4,500 -600 Descending Cleveland Center
08:57PM 41.0392 -82.0781 63° Northeast 197 227 4,100 -240 Descending Cleveland Center
08:58PM 41.0608 -82.0206 58° Northeast 180 207 4,100  Level Cleveland Center
08:59PM 41.0864 -81.9661 57° Northeast 174 200 4,100  Level Cleveland Center
09:00PM 41.1122 -81.9142 65° Northeast 176 203 4,100  Level Cleveland Center
09:01PM 41.1358 -81.8458 49° Northeast 173 199 4,100  Level Cleveland Center
09:02PM 41.1675 -81.7967 50° Northeast 175 201 4,100  Level Cleveland Center
09:03PM 41.1953 -81.7531 44° Northeast 171 197 4,100 -360 Level Cleveland Center
09:04PM 41.2311 -81.7069 46° Northeast 185 213 3,500 -540 Descending Cleveland Center
09:05PM 41.2650 -81.6606 41° Northeast 177 204 3,100 -240 Descending Cleveland Center
09:06PM 41.2986 -81.6222 21° North 155 178 3,100 -180 Level Cleveland Center
09:07PM 41.3342 -81.6036 342° North 151 174 2,800 -600 Descending Cleveland Center
09:08PM 41.3800 -81.6236 342° North 157 181 2,000 -540 Descending Cleveland Center
09:09PM 41.4194 -81.6408 342° North 150 173 1,800 -240 Descending Cleveland Center